createdAt,value
2023-04-18T00:00:02.062Z,92.38
2023-04-18T00:01:02.342Z,92.29
2023-04-18T00:02:02.699Z,92.33
2023-04-18T00:03:04.690Z,92.53
2023-04-18T00:04:03.414Z,92.74
2023-04-18T00:05:03.708Z,92.74
2023-04-18T00:06:03.808Z,92.94
2023-04-18T00:07:04.086Z,93.25
2023-04-18T00:08:04.348Z,93.35
2023-04-18T00:09:04.637Z,93.40
2023-04-18T00:10:04.936Z,93.71
2023-04-18T00:11:05.228Z,93.91
2023-04-18T00:12:05.483Z,94.12
2023-04-18T00:13:05.733Z,94.12
2023-04-18T00:14:06.022Z,94.12
2023-04-18T00:15:06.335Z,94.02
2023-04-18T00:16:06.656Z,94.02
2023-04-18T00:17:07.037Z,94.02
2023-04-18T00:18:07.312Z,94.17
2023-04-18T00:19:07.498Z,94.06
2023-04-18T00:20:07.786Z,94.17
2023-04-18T00:21:08.112Z,94.68
2023-04-18T00:22:08.354Z,94.78
2023-04-18T00:23:08.648Z,94.89
2023-04-18T00:24:08.926Z,94.89
2023-04-18T00:25:09.177Z,95.09
2023-04-18T00:26:09.445Z,95.40
2023-04-18T00:27:09.744Z,95.40
2023-04-18T00:28:10.038Z,95.71
2023-04-18T00:29:10.281Z,95.81
2023-04-18T00:30:10.546Z,95.81
2023-04-18T00:31:10.888Z,96.02
2023-04-18T00:32:11.105Z,96.17
2023-04-18T00:33:11.414Z,96.37
2023-04-18T00:34:11.900Z,96.48
2023-04-18T00:35:11.983Z,96.37
2023-04-18T00:36:12.242Z,96.27
2023-04-18T00:37:12.562Z,96.17
2023-04-18T00:38:12.826Z,96.27
2023-04-18T00:39:13.103Z,96.27
2023-04-18T00:40:13.448Z,96.27
2023-04-18T00:41:13.696Z,96.17
2023-04-18T00:42:13.969Z,96.27
2023-04-18T00:43:14.260Z,96.27
2023-04-18T00:44:14.823Z,96.17
2023-04-18T00:45:14.802Z,96.11
2023-04-18T00:46:15.102Z,95.90
2023-04-18T00:47:15.382Z,95.90
2023-04-18T00:48:15.669Z,96.01
2023-04-18T00:49:15.943Z,96.11
2023-04-18T00:50:16.240Z,96.11
2023-04-18T00:51:16.502Z,96.21
2023-04-18T00:52:16.778Z,96.21
2023-04-18T00:53:17.072Z,96.52
2023-04-18T00:54:17.333Z,96.56
2023-04-18T00:55:17.666Z,96.56
2023-04-18T00:56:17.885Z,96.77
2023-04-18T00:57:18.138Z,96.88
2023-04-18T00:58:18.435Z,96.77
2023-04-18T00:59:18.743Z,96.88
2023-04-18T01:00:19.049Z,96.82
2023-04-18T01:01:19.353Z,96.92
2023-04-18T01:02:19.722Z,96.92
2023-04-18T01:03:19.993Z,97.02
2023-04-18T01:04:20.353Z,97.33
2023-04-18T01:05:20.408Z,97.85
2023-04-18T01:06:20.696Z,97.96
2023-04-18T01:07:21.009Z,98.16
2023-04-18T01:08:21.276Z,98.27
2023-04-18T01:09:21.556Z,98.27
2023-04-18T01:10:21.857Z,98.06
2023-04-18T01:11:22.136Z,98.06
2023-04-18T01:12:22.434Z,98.16
2023-04-18T01:13:22.730Z,98.27
2023-04-18T01:14:23.892Z,98.27
2023-04-18T01:15:23.328Z,98.21
2023-04-18T01:16:23.625Z,98.21
2023-04-18T01:17:24.002Z,98.10
2023-04-18T01:18:24.207Z,98.10
2023-04-18T01:19:24.505Z,98.00
2023-04-18T01:20:24.782Z,98.00
2023-04-18T01:21:25.030Z,98.21
2023-04-18T01:22:25.294Z,98.62
2023-04-18T01:23:25.577Z,98.83
2023-04-18T01:24:25.891Z,99.34
2023-04-18T01:25:26.177Z,99.55
2023-04-18T01:26:26.450Z,99.55
2023-04-18T01:27:26.730Z,99.55
2023-04-18T01:28:27.953Z,99.44
2023-04-18T01:29:27.362Z,99.44
2023-04-18T01:30:27.636Z,99.34
2023-04-18T01:31:27.929Z,99.34
2023-04-18T01:32:28.208Z,99.34
2023-04-18T01:33:28.455Z,99.29
2023-04-18T01:34:28.751Z,99.18
2023-04-18T01:35:29.065Z,99.08
2023-04-18T01:36:29.335Z,99.08
2023-04-18T01:37:29.599Z,99.08
2023-04-18T01:38:29.877Z,99.23
2023-04-18T01:39:30.177Z,99.23
2023-04-18T01:40:30.474Z,99.23
2023-04-18T01:41:30.788Z,99.33
2023-04-18T01:42:31.085Z,99.54
2023-04-18T01:43:31.356Z,99.85
2023-04-18T01:44:31.645Z,99.99
2023-04-18T01:45:31.959Z,99.99
2023-04-18T01:46:32.272Z,99.99
2023-04-18T01:47:32.565Z,99.99
2023-04-18T01:48:32.848Z,99.99
2023-04-18T01:49:33.119Z,99.99
2023-04-18T01:50:33.440Z,99.99
2023-04-18T01:51:33.717Z,99.99
2023-04-18T01:52:33.992Z,99.99
2023-04-18T01:53:34.276Z,99.99
2023-04-18T01:54:34.562Z,99.99
2023-04-18T01:55:34.898Z,99.99
2023-04-18T01:56:35.129Z,99.99
2023-04-18T01:57:35.395Z,99.99
2023-04-18T01:58:35.661Z,99.99
2023-04-18T01:59:35.964Z,99.99
2023-04-18T02:00:36.683Z,99.99
2023-04-18T02:01:36.602Z,99.99
2023-04-18T02:02:37.005Z,99.99
2023-04-18T02:03:37.352Z,99.99
2023-04-18T02:04:37.459Z,99.99
2023-04-18T02:05:37.790Z,99.99
2023-04-18T02:06:38.039Z,99.99
2023-04-18T02:07:38.290Z,99.99
2023-04-18T02:08:38.543Z,99.99
2023-04-18T02:09:38.837Z,99.99
2023-04-18T02:10:39.170Z,99.99
2023-04-18T02:11:39.431Z,99.99
2023-04-18T02:12:39.723Z,99.99
2023-04-18T02:13:40.014Z,99.99
2023-04-18T02:14:40.277Z,99.99
2023-04-18T02:15:40.583Z,99.99
2023-04-18T02:16:40.927Z,99.99
2023-04-18T02:17:41.246Z,99.99
2023-04-18T02:18:41.482Z,99.99
2023-04-18T02:19:41.771Z,99.99
2023-04-18T02:20:42.034Z,99.99
2023-04-18T02:21:42.329Z,99.99
2023-04-18T02:22:42.603Z,99.99
2023-04-18T02:23:42.864Z,99.99
2023-04-18T02:24:43.163Z,99.99
2023-04-18T02:25:43.443Z,99.99
2023-04-18T02:26:43.745Z,99.99
2023-04-18T02:27:44.041Z,99.99
2023-04-18T02:28:44.296Z,99.99
2023-04-18T02:29:44.590Z,99.99
2023-04-18T02:30:44.912Z,99.99
2023-04-18T02:31:45.226Z,99.99
2023-04-18T02:32:45.508Z,99.99
2023-04-18T02:33:45.754Z,99.99
2023-04-18T02:34:46.057Z,99.99
2023-04-18T02:35:46.386Z,99.99
2023-04-18T02:36:46.696Z,99.99
2023-04-18T02:37:46.989Z,99.99
2023-04-18T02:38:47.255Z,99.99
2023-04-18T02:39:47.525Z,99.99
2023-04-18T02:40:47.806Z,99.99
2023-04-18T02:41:48.102Z,99.99
2023-04-18T02:42:48.399Z,99.99
2023-04-18T02:43:48.685Z,99.99
2023-04-18T02:44:48.963Z,99.99
2023-04-18T02:45:49.316Z,99.99
2023-04-18T02:46:49.570Z,99.99
2023-04-18T02:47:55.637Z,99.99
2023-04-18T02:48:51.089Z,99.99
2023-04-18T02:49:50.401Z,99.99
2023-04-18T02:50:50.714Z,99.99
2023-04-18T02:51:51.001Z,99.99
2023-04-18T02:52:51.298Z,99.99
2023-04-18T02:53:51.551Z,99.99
2023-04-18T02:54:51.852Z,99.99
2023-04-18T02:55:52.109Z,99.99
2023-04-18T02:56:52.377Z,99.99
2023-04-18T02:57:52.667Z,99.99
2023-04-18T02:58:52.929Z,99.99
2023-04-18T02:59:53.184Z,99.99
2023-04-18T03:00:53.620Z,99.99
2023-04-18T03:01:53.821Z,99.99
2023-04-18T03:02:54.183Z,99.99
2023-04-18T03:03:54.368Z,99.99
2023-04-18T03:04:54.711Z,99.99
2023-04-18T03:05:54.956Z,99.99
2023-04-18T03:06:55.266Z,99.99
2023-04-18T03:07:55.578Z,99.99
2023-04-18T03:08:55.906Z,99.99
2023-04-18T03:09:56.107Z,99.99
2023-04-18T03:10:56.548Z,99.99
2023-04-18T03:11:56.736Z,99.99
2023-04-18T03:12:57.007Z,99.99
2023-04-18T03:13:57.296Z,99.99
2023-04-18T03:14:57.592Z,99.99
2023-04-18T03:15:57.912Z,99.99
2023-04-18T03:16:58.163Z,99.99
2023-04-18T03:17:58.453Z,99.99
2023-04-18T03:18:58.694Z,99.99
2023-04-18T03:19:58.992Z,99.99
2023-04-18T03:20:59.283Z,99.99
2023-04-18T03:21:59.548Z,99.99
2023-04-18T03:22:59.834Z,99.99
2023-04-18T03:24:00.095Z,99.99
2023-04-18T03:25:00.399Z,99.99
2023-04-18T03:26:00.677Z,99.99
2023-04-18T03:27:01.031Z,99.99
2023-04-18T03:28:01.265Z,99.99
2023-04-18T03:29:01.505Z,99.99
2023-04-18T03:30:01.872Z,99.99
2023-04-18T03:31:02.202Z,99.99
2023-04-18T03:32:02.410Z,99.99
2023-04-18T03:33:03.022Z,99.99
2023-04-18T03:34:02.986Z,99.99
2023-04-18T03:35:03.278Z,99.99
2023-04-18T03:36:03.534Z,99.99
2023-04-18T03:37:03.821Z,99.99
2023-04-18T03:38:04.115Z,99.99
2023-04-18T03:39:04.364Z,99.99
2023-04-18T03:40:04.626Z,99.99
2023-04-18T03:41:04.965Z,99.99
2023-04-18T03:42:05.181Z,99.99
2023-04-18T03:43:05.447Z,99.99
2023-04-18T03:44:05.706Z,99.99
2023-04-18T03:45:05.956Z,99.99
2023-04-18T03:46:06.334Z,99.99
2023-04-18T03:47:06.537Z,99.99
2023-04-18T03:48:06.841Z,99.99
2023-04-18T03:49:07.131Z,99.99
2023-04-18T03:50:07.416Z,99.99
2023-04-18T03:51:07.752Z,99.99
2023-04-18T03:52:07.976Z,99.99
2023-04-18T03:53:08.243Z,99.99
2023-04-18T03:54:08.512Z,99.99
2023-04-18T03:55:08.808Z,99.99
2023-04-18T03:56:09.129Z,99.99
2023-04-18T03:57:09.471Z,99.99
2023-04-18T03:58:09.738Z,99.99
2023-04-18T03:59:10.013Z,99.99
2023-04-18T04:00:10.307Z,99.99
2023-04-18T04:01:10.658Z,99.99
2023-04-18T04:02:10.942Z,99.99
2023-04-18T04:03:11.425Z,99.99
2023-04-18T04:04:11.651Z,99.99
2023-04-18T04:05:11.815Z,99.99
2023-04-18T04:06:12.097Z,99.99
2023-04-18T04:07:12.350Z,99.99
2023-04-18T04:08:12.647Z,99.99
2023-04-18T04:09:12.921Z,99.99
2023-04-18T04:10:13.196Z,99.99
2023-04-18T04:11:13.476Z,99.99
2023-04-18T04:12:13.756Z,99.99
2023-04-18T04:13:14.324Z,99.99
2023-04-18T04:14:14.657Z,99.99
2023-04-18T04:15:14.691Z,99.99
2023-04-18T04:16:15.073Z,99.99
2023-04-18T04:17:15.313Z,99.99
2023-04-18T04:18:16.546Z,99.99
2023-04-18T04:19:15.854Z,99.99
2023-04-18T04:20:16.133Z,99.99
2023-04-18T04:21:16.484Z,99.99
2023-04-18T04:22:16.757Z,99.99
2023-04-18T04:23:17.071Z,99.99
2023-04-18T04:24:17.352Z,99.99
2023-04-18T04:25:18.553Z,99.99
2023-04-18T04:26:17.896Z,99.99
2023-04-18T04:27:18.201Z,99.99
2023-04-18T04:28:18.500Z,99.99
2023-04-18T04:29:18.779Z,99.99
2023-04-18T04:30:19.090Z,99.99
2023-04-18T04:31:19.461Z,99.99
2023-04-18T04:32:19.763Z,99.99
2023-04-18T04:33:20.036Z,99.99
2023-04-18T04:34:20.349Z,99.99
2023-04-18T04:35:20.637Z,99.99
2023-04-18T04:36:20.994Z,99.99
2023-04-18T04:37:21.389Z,99.99
2023-04-18T04:38:21.505Z,99.99
2023-04-18T04:39:21.824Z,99.99
2023-04-18T04:40:22.152Z,99.99
2023-04-18T04:41:22.473Z,99.99
2023-04-18T04:42:22.778Z,99.99
2023-04-18T04:43:23.092Z,99.99
2023-04-18T04:44:23.469Z,99.99
2023-04-18T04:45:24.331Z,99.99
2023-04-18T04:46:24.125Z,99.99
2023-04-18T04:47:24.330Z,99.99
2023-04-18T04:48:24.488Z,99.99
2023-04-18T04:49:24.786Z,99.98
2023-04-18T04:50:25.084Z,99.87
2023-04-18T04:51:25.419Z,99.77
2023-04-18T04:52:25.716Z,99.77
2023-04-18T04:53:26.462Z,99.66
2023-04-18T04:54:26.268Z,99.66
2023-04-18T04:55:26.562Z,99.62
2023-04-18T04:56:26.858Z,99.62
2023-04-18T04:57:27.185Z,99.72
2023-04-18T04:58:27.522Z,99.72
2023-04-18T04:59:27.829Z,99.72
2023-04-18T05:00:28.112Z,99.68
2023-04-18T05:01:28.467Z,99.78
2023-04-18T05:02:28.958Z,99.78
2023-04-18T05:03:29.143Z,99.78
2023-04-18T05:04:29.469Z,99.73
2023-04-18T05:05:29.592Z,99.63
2023-04-18T05:06:29.896Z,99.52
2023-04-18T05:07:30.494Z,99.43
2023-04-18T05:08:30.461Z,99.17
2023-04-18T05:09:30.752Z,99.07
2023-04-18T05:10:31.089Z,99.07
2023-04-18T05:11:31.284Z,98.96
2023-04-18T05:12:31.594Z,98.82
2023-04-18T05:13:31.941Z,98.92
2023-04-18T05:14:32.171Z,98.82
2023-04-18T05:15:32.381Z,98.61
2023-04-18T05:16:32.733Z,98.46
2023-04-18T05:17:32.936Z,98.46
2023-04-18T05:18:35.028Z,98.46
2023-04-18T05:19:33.547Z,98.31
2023-04-18T05:20:33.883Z,97.89
2023-04-18T05:21:34.215Z,97.75
2023-04-18T05:22:34.419Z,97.64
2023-04-18T05:23:34.724Z,97.50
2023-04-18T05:24:35.127Z,96.98
2023-04-18T05:25:35.337Z,96.42
2023-04-18T05:26:35.773Z,95.55
2023-04-18T05:27:35.882Z,95.09
2023-04-18T05:28:36.079Z,94.18
2023-04-18T05:29:36.397Z,92.80
2023-04-18T05:30:36.615Z,89.46
2023-04-18T05:31:36.893Z,88.24
2023-04-18T05:32:37.196Z,87.24
2023-04-18T05:33:37.479Z,85.68
2023-04-18T05:34:38.875Z,83.47
2023-04-18T05:35:38.059Z,80.08
2023-04-18T05:36:46.158Z,76.43
2023-04-18T05:37:38.667Z,73.33
2023-04-18T05:38:38.987Z,73.57
2023-04-18T05:39:39.321Z,71.06
2023-04-18T05:40:39.666Z,69.29
2023-04-18T05:41:39.864Z,69.80
2023-04-18T05:42:40.213Z,69.26
2023-04-18T05:43:41.821Z,68.48
2023-04-18T05:44:40.761Z,68.40
2023-04-18T05:45:40.975Z,68.30
2023-04-18T05:46:41.339Z,69.42
2023-04-18T05:47:41.556Z,69.59
2023-04-18T05:48:41.855Z,68.82
2023-04-18T05:49:42.164Z,68.01
2023-04-18T05:50:42.476Z,65.17
2023-04-18T05:51:42.784Z,63.89
2023-04-18T05:52:43.135Z,61.88
2023-04-18T05:53:43.358Z,59.70
2023-04-18T05:54:43.739Z,59.31
2023-04-18T05:55:44.006Z,57.84
2023-04-18T05:56:44.321Z,56.17
2023-04-18T05:57:44.651Z,54.23
2023-04-18T05:58:44.988Z,53.78
2023-04-18T05:59:45.324Z,52.62
2023-04-18T06:00:45.613Z,52.59
2023-04-18T06:01:45.963Z,51.04
2023-04-18T06:02:46.477Z,51.04
2023-04-18T06:03:46.950Z,51.06
2023-04-18T06:04:47.042Z,51.59
2023-04-18T06:05:47.191Z,51.46
2023-04-18T06:06:47.370Z,50.93
2023-04-18T06:07:47.672Z,50.51
2023-04-18T06:08:48.015Z,49.86
2023-04-18T06:09:48.354Z,48.91
2023-04-18T06:10:48.695Z,48.69
2023-04-18T06:11:49.020Z,47.76
2023-04-18T06:12:49.365Z,47.52
2023-04-18T06:13:49.637Z,46.89
2023-04-18T06:14:49.924Z,46.17
2023-04-18T06:15:50.317Z,44.53
2023-04-18T06:16:50.512Z,44.01
2023-04-18T06:17:50.834Z,42.91
2023-04-18T06:18:51.199Z,43.39
2023-04-18T06:19:51.406Z,41.80
2023-04-18T06:20:51.775Z,43.79
2023-04-18T06:21:51.980Z,43.25
2023-04-18T06:22:52.326Z,42.51
2023-04-18T06:23:52.525Z,41.50
2023-04-18T06:24:52.876Z,40.58
2023-04-18T06:25:53.059Z,39.76
2023-04-18T06:26:53.829Z,40.24
2023-04-18T06:27:53.682Z,39.95
2023-04-18T06:28:53.938Z,38.85
2023-04-18T06:29:54.156Z,39.58
2023-04-18T06:30:54.480Z,41.60
2023-04-18T06:31:54.881Z,42.46
2023-04-18T06:32:55.045Z,43.33
2023-04-18T06:33:55.406Z,42.69
2023-04-18T06:34:55.688Z,41.55
2023-04-18T06:35:56.045Z,41.75
2023-04-18T06:36:56.272Z,41.22
2023-04-18T06:37:56.498Z,40.28
2023-04-18T06:38:56.888Z,39.40
2023-04-18T06:39:57.133Z,39.40
2023-04-18T06:40:57.327Z,39.48
2023-04-18T06:41:57.693Z,39.78
2023-04-18T06:42:57.950Z,40.26
2023-04-18T06:44:58.497Z,41.12
2023-04-18T06:45:58.706Z,40.58
2023-04-18T06:46:59.064Z,39.69
2023-04-18T06:47:59.339Z,41.16
2023-04-18T06:48:59.539Z,44.42
2023-04-18T06:49:59.797Z,43.82
2023-04-18T06:51:00.023Z,43.24
2023-04-18T06:52:00.376Z,46.41
2023-04-18T06:53:00.640Z,48.67
2023-04-18T06:54:00.899Z,48.79
2023-04-18T06:55:01.127Z,48.37
2023-04-18T06:56:01.516Z,47.47
2023-04-18T06:57:01.710Z,46.65
2023-04-18T06:58:02.057Z,47.19
2023-04-18T06:59:02.325Z,47.22
2023-04-18T07:00:02.540Z,48.27
2023-04-18T07:01:02.859Z,50.15
2023-04-18T07:02:03.169Z,50.00
2023-04-18T07:03:03.537Z,49.18
2023-04-18T07:04:03.752Z,50.60
2023-04-18T07:05:03.895Z,49.70
2023-04-18T07:06:04.112Z,48.85
2023-04-18T07:07:04.487Z,49.10
2023-04-18T07:08:04.720Z,48.44
2023-04-18T07:09:04.933Z,47.90
2023-04-18T07:10:05.264Z,46.95
2023-04-18T07:11:05.601Z,45.88
2023-04-18T07:12:05.968Z,44.35
2023-04-18T07:13:06.311Z,45.28
2023-04-18T07:14:06.545Z,44.66
2023-04-18T07:15:06.881Z,44.90
2023-04-18T07:16:07.206Z,46.85
2023-04-18T07:17:07.632Z,48.35
2023-04-18T07:18:07.897Z,49.40
2023-04-18T07:19:08.151Z,49.07
2023-04-18T07:20:08.395Z,48.38
2023-04-18T07:21:08.667Z,46.11
2023-04-18T07:22:08.835Z,45.66
2023-04-18T07:23:09.184Z,45.66
2023-04-18T07:24:09.417Z,44.42
2023-04-18T07:25:09.751Z,45.62
2023-04-18T07:26:10.050Z,46.04
2023-04-18T07:27:10.379Z,45.90
2023-04-18T07:28:10.671Z,44.70
2023-04-18T07:29:10.975Z,45.48
2023-04-18T07:30:11.317Z,44.34
2023-04-18T07:31:11.817Z,42.57
2023-04-18T07:32:12.006Z,42.02
2023-04-18T07:33:12.226Z,44.58
2023-04-18T07:34:12.786Z,45.59
2023-04-18T07:35:12.880Z,49.99
2023-04-18T07:36:13.231Z,50.53
2023-04-18T07:37:14.865Z,47.09
2023-04-18T07:38:13.711Z,48.69
2023-04-18T07:39:13.919Z,48.97
2023-04-18T07:40:14.242Z,47.75
2023-04-18T07:41:14.551Z,45.18
2023-04-18T07:42:14.858Z,44.30
2023-04-18T07:43:15.198Z,44.86
2023-04-18T07:44:15.753Z,44.82
2023-04-18T07:45:15.817Z,48.21
2023-04-18T07:46:16.193Z,51.68
2023-04-18T07:47:16.403Z,53.72
2023-04-18T07:48:16.768Z,55.70
2023-04-18T07:49:17.017Z,57.64
2023-04-18T07:50:17.112Z,59.59
2023-04-18T07:51:17.440Z,57.07
2023-04-18T07:52:17.737Z,53.05
2023-04-18T07:53:18.015Z,51.11
2023-04-18T07:54:18.322Z,47.67
2023-04-18T07:55:18.601Z,46.75
2023-04-18T07:56:18.933Z,47.44
2023-04-18T07:57:19.281Z,48.29
2023-04-18T07:58:19.557Z,49.27
2023-04-18T07:59:19.858Z,49.47
2023-04-18T08:00:20.170Z,50.17
2023-04-18T08:01:20.457Z,50.33
2023-04-18T08:02:20.867Z,49.19
2023-04-18T08:03:21.185Z,48.74
2023-04-18T08:04:21.392Z,49.77
2023-04-18T08:05:21.595Z,49.95
2023-04-18T08:06:21.909Z,48.77
2023-04-18T08:07:22.209Z,48.47
2023-04-18T08:08:22.549Z,46.73
2023-04-18T08:09:22.859Z,47.61
2023-04-18T08:10:23.890Z,48.74
2023-04-18T08:11:23.439Z,48.92
2023-04-18T08:12:23.785Z,48.87
2023-04-18T08:13:24.098Z,47.27
2023-04-18T08:14:24.396Z,45.06
2023-04-18T08:15:24.706Z,43.40
2023-04-18T08:16:25.112Z,43.35
2023-04-18T08:17:25.292Z,45.77
2023-04-18T08:18:25.596Z,48.99
2023-04-18T08:19:25.893Z,50.42
2023-04-18T08:20:26.203Z,54.05
2023-04-18T08:21:26.465Z,56.57
2023-04-18T08:22:26.805Z,58.24
2023-04-18T08:23:27.081Z,58.98
2023-04-18T08:24:27.378Z,60.66
2023-04-18T08:25:27.676Z,61.83
2023-04-18T08:26:27.935Z,63.29
2023-04-18T08:27:28.234Z,63.83
2023-04-18T08:28:28.550Z,64.78
2023-04-18T08:29:28.861Z,65.22
2023-04-18T08:30:29.226Z,66.36
2023-04-18T08:31:29.534Z,66.33
2023-04-18T08:32:29.844Z,66.36
2023-04-18T08:33:30.166Z,66.94
2023-04-18T08:34:30.477Z,66.54
2023-04-18T08:35:30.795Z,66.61
2023-04-18T08:36:31.052Z,66.91
2023-04-18T08:37:31.355Z,66.00
2023-04-18T08:38:31.663Z,64.51
2023-04-18T08:39:31.943Z,64.00
2023-04-18T08:40:32.251Z,63.90
2023-04-18T08:41:32.561Z,63.36
2023-04-18T08:42:32.846Z,64.38
2023-04-18T08:43:33.152Z,63.36
2023-04-18T08:44:33.429Z,63.77
2023-04-18T08:45:33.776Z,64.31
2023-04-18T08:46:34.028Z,65.25
2023-04-18T08:47:34.372Z,65.59
2023-04-18T08:48:34.647Z,65.49
2023-04-18T08:49:34.970Z,66.00
2023-04-18T08:50:35.301Z,66.17
2023-04-18T08:51:35.583Z,65.12
2023-04-18T08:52:35.870Z,64.38
2023-04-18T08:53:36.212Z,63.97
2023-04-18T08:54:36.529Z,65.94
2023-04-18T08:55:36.811Z,66.44
2023-04-18T08:56:37.074Z,65.43
2023-04-18T08:57:37.368Z,65.91
2023-04-18T08:58:37.670Z,65.36
2023-04-18T08:59:37.937Z,66.20
2023-04-18T09:00:38.210Z,66.20
2023-04-18T09:01:38.543Z,66.50
2023-04-18T09:02:39.186Z,66.64
2023-04-18T09:03:39.182Z,66.50
2023-04-18T09:04:39.444Z,66.74
2023-04-18T09:05:39.651Z,67.66
2023-04-18T09:06:39.945Z,67.12
2023-04-18T09:07:40.226Z,67.43
2023-04-18T09:08:40.564Z,67.60
2023-04-18T09:09:40.763Z,67.08
2023-04-18T09:10:41.073Z,66.55
2023-04-18T09:11:41.373Z,66.04
2023-04-18T09:12:41.703Z,65.66
2023-04-18T09:13:41.901Z,66.17
2023-04-18T09:14:42.197Z,66.17
2023-04-18T09:15:42.502Z,66.35
2023-04-18T09:16:42.846Z,67.26
2023-04-18T09:17:43.225Z,66.14
2023-04-18T09:18:43.531Z,65.73
2023-04-18T09:19:43.788Z,66.72
2023-04-18T09:20:44.147Z,65.91
2023-04-18T09:21:44.505Z,65.63
2023-04-18T09:22:44.711Z,65.39
2023-04-18T09:23:45.065Z,65.30
2023-04-18T09:24:45.323Z,65.70
2023-04-18T09:25:45.700Z,65.02
2023-04-18T09:26:45.947Z,65.97
2023-04-18T09:27:46.240Z,66.88
2023-04-18T09:28:46.540Z,67.16
2023-04-18T09:29:46.953Z,66.55
2023-04-18T09:30:47.218Z,65.70
2023-04-18T09:31:47.508Z,64.84
2023-04-18T09:32:47.868Z,65.56
2023-04-18T09:33:48.261Z,65.66
2023-04-18T09:34:48.424Z,65.02
2023-04-18T09:35:48.741Z,64.51
2023-04-18T09:36:49.069Z,64.61
2023-04-18T09:37:49.358Z,64.72
2023-04-18T09:38:49.673Z,64.31
2023-04-18T09:39:49.958Z,64.61
2023-04-18T09:40:50.289Z,64.07
2023-04-18T09:41:50.555Z,64.69
2023-04-18T09:42:50.819Z,64.69
2023-04-18T09:43:51.170Z,65.33
2023-04-18T09:44:51.408Z,64.31
2023-04-18T09:45:51.730Z,63.80
2023-04-18T09:46:52.035Z,64.31
2023-04-18T09:47:52.401Z,64.20
2023-04-18T09:48:52.644Z,64.81
2023-04-18T09:49:52.957Z,65.22
2023-04-18T09:50:53.237Z,65.33
2023-04-18T09:51:53.526Z,64.48
2023-04-18T09:52:53.831Z,63.84
2023-04-18T09:53:54.167Z,63.60
2023-04-18T09:54:54.474Z,62.90
2023-04-18T09:55:57.489Z,62.90
2023-04-18T09:56:55.073Z,63.20
2023-04-18T09:57:55.387Z,62.87
2023-04-18T09:58:55.717Z,62.02
2023-04-18T09:59:56.028Z,60.81
2023-04-18T10:00:56.310Z,61.41
2023-04-18T10:01:56.766Z,61.41
2023-04-18T10:02:56.975Z,60.91
2023-04-18T10:03:57.544Z,61.11
2023-04-18T10:04:57.578Z,61.57
2023-04-18T10:05:58.074Z,62.59
2023-04-18T10:06:58.158Z,62.79
2023-04-18T10:07:58.471Z,63.07
2023-04-18T10:08:58.820Z,62.53
2023-04-18T10:09:59.112Z,63.24
2023-04-18T10:10:59.397Z,62.43
2023-04-18T10:11:59.706Z,62.23
2023-04-18T10:13:00.039Z,62.30
2023-04-18T10:14:00.354Z,61.32
2023-04-18T10:15:00.667Z,62.36
2023-04-18T10:16:01.040Z,62.26
2023-04-18T10:17:01.280Z,63.34
2023-04-18T10:18:05.179Z,62.91
2023-04-18T10:19:01.885Z,63.01
2023-04-18T10:20:02.242Z,62.91
2023-04-18T10:21:02.512Z,62.81
2023-04-18T10:22:02.794Z,62.27
2023-04-18T10:23:03.079Z,61.25
2023-04-18T10:24:03.444Z,62.53
2023-04-18T10:25:03.732Z,63.52
2023-04-18T10:26:03.971Z,63.59
2023-04-18T10:27:04.241Z,62.65
2023-04-18T10:28:04.544Z,61.83
2023-04-18T10:29:04.870Z,60.82
2023-04-18T10:30:05.451Z,61.16
2023-04-18T10:31:05.390Z,61.79
2023-04-18T10:32:05.671Z,62.17
2023-04-18T10:33:12.699Z,61.49
2023-04-18T10:34:07.283Z,61.69
2023-04-18T10:35:06.613Z,61.90
2023-04-18T10:36:06.900Z,62.43
2023-04-18T10:37:07.208Z,63.17
2023-04-18T10:38:07.528Z,63.14
2023-04-18T10:39:07.835Z,62.43
2023-04-18T10:40:08.166Z,63.28
2023-04-18T10:41:08.446Z,64.56
2023-04-18T10:42:08.727Z,63.52
2023-04-18T10:43:09.010Z,62.40
2023-04-18T10:44:09.374Z,62.98
2023-04-18T10:45:09.641Z,63.29
2023-04-18T10:46:20.181Z,63.18
2023-04-18T10:47:11.233Z,62.88
2023-04-18T10:48:10.568Z,62.75
2023-04-18T10:49:10.884Z,62.75
2023-04-18T10:50:11.171Z,62.45
2023-04-18T10:51:11.448Z,62.88
2023-04-18T10:52:13.360Z,62.10
2023-04-18T10:53:11.972Z,63.45
2023-04-18T10:54:12.539Z,63.75
2023-04-18T10:55:12.489Z,63.75
2023-04-18T10:56:12.788Z,64.15
2023-04-18T10:57:13.110Z,63.72
2023-04-18T10:58:13.389Z,63.62
2023-04-18T10:59:13.720Z,63.78
2023-04-18T11:00:14.035Z,65.54
2023-04-18T11:01:14.487Z,65.44
2023-04-18T11:02:14.629Z,66.02
2023-04-18T11:03:14.964Z,65.58
2023-04-18T11:04:15.654Z,65.17
2023-04-18T11:05:15.649Z,64.87
2023-04-18T11:06:15.786Z,64.36
2023-04-18T11:07:16.058Z,64.46
2023-04-18T11:08:16.343Z,64.73
2023-04-18T11:09:16.702Z,63.79
2023-04-18T11:10:16.973Z,63.62
2023-04-18T11:11:17.283Z,62.78
2023-04-18T11:12:17.589Z,63.39
2023-04-18T11:13:17.881Z,63.35
2023-04-18T11:14:18.313Z,62.34
2023-04-18T11:15:18.467Z,63.15
2023-04-18T11:16:18.812Z,63.23
2023-04-18T11:17:19.060Z,63.50
2023-04-18T11:18:19.370Z,61.85
2023-04-18T11:19:19.648Z,61.85
2023-04-18T11:20:19.944Z,61.41
2023-04-18T11:21:20.264Z,60.50
2023-04-18T11:22:20.523Z,61.24
2023-04-18T11:23:20.784Z,61.65
2023-04-18T11:24:21.064Z,62.05
2023-04-18T11:25:21.373Z,62.82
2023-04-18T11:26:21.625Z,63.26
2023-04-18T11:27:21.892Z,64.24
2023-04-18T11:28:22.196Z,64.34
2023-04-18T11:29:22.494Z,64.04
2023-04-18T11:30:22.773Z,64.44
2023-04-18T11:31:23.076Z,63.66
2023-04-18T11:32:23.538Z,64.17
2023-04-18T11:33:23.708Z,64.40
2023-04-18T11:34:24.000Z,64.10
2023-04-18T11:35:24.262Z,64.70
2023-04-18T11:36:24.576Z,64.61
2023-04-18T11:37:31.878Z,64.81
2023-04-18T11:38:25.112Z,64.37
2023-04-18T11:39:25.409Z,64.81
2023-04-18T11:40:25.718Z,65.42
2023-04-18T11:41:26.007Z,65.95
2023-04-18T11:42:26.296Z,66.23
2023-04-18T11:43:26.591Z,66.60
2023-04-18T11:44:26.868Z,66.19
2023-04-18T11:45:27.211Z,65.48
2023-04-18T11:46:27.543Z,65.62
2023-04-18T11:47:27.842Z,66.13
2023-04-18T11:48:28.101Z,66.43
2023-04-18T11:49:28.415Z,65.48
2023-04-18T11:50:28.777Z,65.62
2023-04-18T11:51:29.059Z,66.19
2023-04-18T11:52:29.292Z,66.16
2023-04-18T11:53:29.612Z,65.76
2023-04-18T11:54:29.921Z,64.75
2023-04-18T11:55:30.303Z,64.41
2023-04-18T11:56:30.598Z,65.02
2023-04-18T11:57:30.944Z,63.81
2023-04-18T11:58:31.210Z,63.81
2023-04-18T11:59:31.522Z,64.24
2023-04-18T12:00:31.855Z,64.24
2023-04-18T12:01:32.152Z,65.18
2023-04-18T12:02:32.548Z,65.69
2023-04-18T12:03:33.938Z,65.96
2023-04-18T12:04:33.227Z,64.95
2023-04-18T12:05:33.670Z,64.34
2023-04-18T12:06:33.681Z,64.64
2023-04-18T12:07:33.954Z,64.64
2023-04-18T12:08:34.244Z,64.92
2023-04-18T12:09:34.528Z,64.28
2023-04-18T12:10:34.844Z,63.67
2023-04-18T12:11:35.271Z,63.07
2023-04-18T12:12:35.434Z,63.07
2023-04-18T12:13:35.738Z,63.67
2023-04-18T12:14:36.048Z,64.07
2023-04-18T12:15:36.463Z,64.35
2023-04-18T12:16:36.651Z,63.21
2023-04-18T12:17:36.961Z,62.57
2023-04-18T12:18:37.231Z,63.51
2023-04-18T12:19:37.519Z,64.04
2023-04-18T12:20:37.845Z,63.75
2023-04-18T12:21:38.121Z,63.95
2023-04-18T12:22:38.425Z,63.01
2023-04-18T12:23:38.729Z,61.79
2023-04-18T12:24:39.036Z,62.43
2023-04-18T12:25:39.358Z,62.84
2023-04-18T12:26:39.678Z,62.33
2023-04-18T12:27:39.971Z,63.27
2023-04-18T12:28:40.281Z,63.54
2023-04-18T12:29:40.594Z,63.75
2023-04-18T12:30:40.881Z,63.75
2023-04-18T12:31:41.202Z,63.34
2023-04-18T12:32:41.534Z,62.53
2023-04-18T12:33:41.759Z,61.90
2023-04-18T12:34:42.052Z,62.50
2023-04-18T12:35:42.342Z,62.67
2023-04-18T12:36:42.624Z,62.67
2023-04-18T12:37:42.910Z,62.50
2023-04-18T12:38:43.227Z,62.87
2023-04-18T12:39:43.556Z,62.81
2023-04-18T12:40:43.903Z,63.64
2023-04-18T12:41:44.185Z,62.66
2023-04-18T12:42:44.482Z,64.18
2023-04-18T12:43:44.757Z,64.25
2023-04-18T12:44:46.989Z,64.55
2023-04-18T12:45:45.392Z,63.95
2023-04-18T12:46:45.732Z,64.58
2023-04-18T12:47:46.060Z,65.29
2023-04-18T12:48:46.294Z,64.89
2023-04-18T12:49:46.586Z,64.82
2023-04-18T12:50:46.936Z,65.42
2023-04-18T12:51:47.221Z,63.87
2023-04-18T12:52:47.523Z,64.51
2023-04-18T12:53:47.806Z,65.09
2023-04-18T12:54:48.111Z,64.99
2023-04-18T12:55:48.415Z,64.25
2023-04-18T12:56:48.692Z,64.15